Terminal Aerodrome Forecast
Issued by NWS Glasgow, MT

Home | Current Version | Previous Version | Text Only | Print | Product List | Glossary On
Versions: 1 2 3 4 5 6 7 8 9 10 11 12 13 14 15
000
FTUS45 KGGW 272300
TAFGGW
TAF
KGGW 272335Z 2800/2824 VRB03KT P6SM SCT070 BKN110
     FM280500 10008KT P6SM SCT020 BKN120
     FM281000 08016KT 4SM -SN BLSN OVC009
     FM281900 06011KT P6SM VCSH SCT015 BKN030=

USA.gov is the U.S. government's official web portal to all federal, state and local government web resources and services.